createdAt,value
2023-04-29T00:02:16.728Z,12.35
2023-04-29T00:04:43.529Z,12.38
2023-04-29T00:07:10.070Z,12.42
2023-04-29T00:09:37.629Z,12.46
2023-04-29T00:12:04.135Z,12.47
2023-04-29T00:14:30.592Z,12.49
2023-04-29T00:16:57.236Z,12.49
2023-04-29T00:19:23.814Z,12.50
2023-04-29T00:21:50.243Z,12.51
2023-04-29T00:24:16.685Z,12.47
2023-04-29T00:26:43.072Z,12.44
2023-04-29T00:29:09.551Z,12.40
2023-04-29T00:31:37.451Z,12.38
2023-04-29T00:34:04.049Z,12.34
2023-04-29T00:36:31.870Z,12.32
2023-04-29T00:38:59.493Z,12.30
2023-04-29T00:41:26.199Z,12.23
2023-04-29T00:43:53.071Z,12.24
2023-04-29T00:46:19.869Z,12.27
2023-04-29T00:48:46.420Z,12.28
2023-04-29T00:51:13.648Z,12.29
2023-04-29T00:53:40.877Z,12.32
2023-04-29T00:56:08.668Z,12.34
2023-04-29T00:58:36.284Z,12.34
2023-04-29T01:01:03.854Z,12.31
2023-04-29T01:03:31.669Z,12.30
2023-04-29T01:06:09.241Z,12.34
2023-04-29T01:08:51.186Z,12.32
2023-04-29T01:11:23.778Z,12.31
2023-04-29T01:13:54.412Z,12.30
2023-04-29T01:16:42.833Z,12.28
2023-04-29T01:19:55.126Z,12.24
2023-04-29T01:22:22.435Z,12.20
2023-04-29T01:24:49.703Z,12.17
2023-04-29T01:27:31.809Z,12.19
2023-04-29T01:30:34.862Z,12.19
2023-04-29T01:33:17.101Z,12.16
2023-04-29T01:35:52.821Z,12.20
2023-04-29T01:38:38.305Z,12.21
2023-04-29T01:41:14.381Z,12.24
2023-04-29T01:43:43.037Z,12.24
2023-04-29T01:46:19.574Z,12.22
2023-04-29T01:48:46.566Z,12.22
2023-04-29T01:51:13.785Z,12.22
2023-04-29T01:53:41.071Z,12.21
2023-04-29T01:56:08.260Z,12.22
2023-04-29T01:58:44.743Z,12.20
2023-04-29T02:01:20.093Z,12.18
2023-04-29T02:03:46.964Z,12.16
2023-04-29T02:06:15.397Z,12.13
2023-04-29T02:08:42.550Z,12.12
2023-04-29T02:11:08.982Z,12.13
2023-04-29T02:13:39.732Z,12.16
2023-04-29T02:16:10.918Z,12.16
2023-04-29T02:18:41.155Z,12.16
2023-04-29T02:21:07.864Z,12.13
2023-04-29T02:23:35.761Z,12.12
2023-04-29T02:26:03.908Z,12.12
2023-04-29T02:28:30.351Z,12.12
2023-04-29T02:30:57.769Z,12.14
2023-04-29T02:33:24.480Z,12.14
2023-04-29T02:35:50.904Z,12.14
2023-04-29T02:38:17.400Z,12.15
2023-04-29T02:40:45.458Z,12.16
2023-04-29T02:43:12.859Z,12.14
2023-04-29T02:45:39.876Z,12.11
2023-04-29T02:48:07.588Z,12.14
2023-04-29T02:50:34.317Z,12.14
2023-04-29T02:53:01.175Z,12.15
2023-04-29T02:55:27.740Z,12.20
2023-04-29T02:57:58.766Z,12.22
2023-04-29T03:00:25.434Z,12.28
2023-04-29T03:02:52.038Z,12.29
2023-04-29T03:05:19.149Z,12.28
2023-04-29T03:07:45.720Z,12.28
2023-04-29T03:10:12.456Z,12.29
2023-04-29T03:12:39.520Z,12.27
2023-04-29T03:15:07.663Z,12.26
2023-04-29T03:17:34.855Z,12.26
2023-04-29T03:20:01.660Z,12.25
2023-04-29T03:22:28.524Z,12.23
2023-04-29T03:24:55.066Z,12.22
2023-04-29T03:27:22.197Z,12.20
2023-04-29T03:29:49.384Z,12.16
2023-04-29T03:32:15.945Z,12.14
2023-04-29T03:34:43.699Z,12.11
2023-04-29T03:37:36.258Z,12.04
2023-04-29T03:40:19.880Z,12.01
2023-04-29T03:42:47.187Z,11.97
2023-04-29T03:45:14.432Z,11.93
2023-04-29T03:47:41.478Z,11.88
2023-04-29T03:50:08.548Z,11.86
2023-04-29T03:52:38.019Z,11.80
2023-04-29T03:55:10.430Z,11.83
2023-04-29T03:57:37.046Z,11.81
2023-04-29T04:00:05.118Z,11.80
2023-04-29T04:02:40.160Z,11.81
2023-04-29T04:05:08.758Z,11.80
2023-04-29T04:07:35.553Z,11.78
2023-04-29T04:10:20.506Z,11.75
2023-04-29T04:12:50.165Z,11.74
2023-04-29T04:15:17.069Z,11.73
2023-04-29T04:17:43.664Z,11.72
2023-04-29T04:20:10.704Z,11.70
2023-04-29T04:22:38.035Z,11.65
2023-04-29T04:25:14.632Z,11.65
2023-04-29T04:27:41.160Z,11.64
2023-04-29T04:30:12.448Z,11.64
2023-04-29T04:32:40.626Z,11.66
2023-04-29T04:35:08.320Z,11.68
2023-04-29T04:37:34.854Z,11.68
2023-04-29T04:40:02.114Z,11.68
2023-04-29T04:42:30.152Z,11.70
2023-04-29T04:44:58.172Z,11.71
2023-04-29T04:47:33.803Z,11.74
2023-04-29T04:50:05.343Z,11.77
2023-04-29T04:52:31.810Z,11.78
2023-04-29T04:55:18.588Z,11.80
2023-04-29T04:57:49.472Z,11.82
2023-04-29T05:00:17.436Z,11.86
2023-04-29T05:02:44.294Z,11.93
2023-04-29T05:05:10.896Z,11.99
2023-04-29T05:07:40.777Z,12.05
2023-04-29T05:10:08.858Z,12.09
2023-04-29T05:12:42.518Z,12.16
2023-04-29T05:15:09.273Z,12.21
2023-04-29T05:17:36.462Z,12.34
2023-04-29T05:20:03.597Z,12.42
2023-04-29T05:22:32.279Z,12.50
2023-04-29T05:25:03.139Z,12.57
2023-04-29T05:27:31.216Z,12.67
2023-04-29T05:29:57.861Z,12.77
2023-04-29T05:32:24.546Z,12.82
2023-04-29T05:34:51.473Z,12.89
2023-04-29T05:37:17.953Z,12.94
2023-04-29T05:40:00.242Z,12.98
2023-04-29T05:42:27.215Z,13.01
2023-04-29T05:44:53.811Z,13.06
2023-04-29T05:47:20.320Z,13.11
2023-04-29T05:49:47.015Z,13.09
2023-04-29T05:52:13.834Z,13.09
2023-04-29T05:54:45.035Z,13.12
2023-04-29T05:57:12.083Z,13.10
2023-04-29T05:59:40.612Z,13.10
2023-04-29T06:02:07.086Z,13.07
2023-04-29T06:04:35.214Z,13.03
2023-04-29T06:07:26.825Z,12.99
2023-04-29T06:10:13.587Z,12.96
2023-04-29T06:12:42.726Z,12.94
2023-04-29T06:15:09.591Z,12.92
2023-04-29T06:17:36.101Z,12.89
2023-04-29T06:20:02.563Z,12.90
2023-04-29T06:22:29.341Z,12.88
2023-04-29T06:24:58.718Z,12.89
2023-04-29T06:27:41.522Z,12.92
2023-04-29T06:30:08.528Z,12.94
2023-04-29T06:32:35.375Z,12.96
2023-04-29T06:35:01.953Z,12.95
2023-04-29T06:37:57.620Z,12.94
2023-04-29T06:40:36.259Z,13.05
2023-04-29T06:43:12.769Z,13.12
2023-04-29T06:45:57.851Z,13.09
2023-04-29T06:48:33.980Z,13.04
2023-04-29T06:51:00.470Z,12.99
2023-04-29T06:53:27.264Z,12.98
2023-04-29T06:55:53.789Z,12.98
2023-04-29T06:58:20.456Z,12.91
2023-04-29T07:00:49.827Z,12.98
2023-04-29T07:05:50.383Z,13.22
2023-04-29T07:08:16.889Z,13.33
2023-04-29T07:10:43.329Z,13.47
2023-04-29T07:13:09.781Z,13.65
2023-04-29T07:15:36.966Z,13.80
2023-04-29T07:18:05.305Z,13.92
2023-04-29T07:20:32.218Z,13.89
2023-04-29T07:22:59.249Z,13.81
2023-04-29T07:25:27.880Z,13.75
2023-04-29T07:27:56.524Z,13.70
2023-04-29T07:30:25.103Z,13.89
2023-04-29T07:32:51.799Z,13.89
2023-04-29T07:35:18.811Z,13.75
2023-04-29T07:37:45.879Z,13.70
2023-04-29T07:40:12.551Z,13.69
2023-04-29T07:42:39.152Z,13.66
2023-04-29T07:45:07.850Z,13.62
2023-04-29T07:47:34.422Z,13.59
2023-04-29T07:50:01.025Z,13.63
2023-04-29T07:52:27.478Z,13.85
2023-04-29T07:54:56.181Z,13.90
2023-04-29T07:57:22.977Z,13.87
2023-04-29T07:59:55.579Z,13.72
2023-04-29T08:02:22.142Z,13.73
2023-04-29T08:04:51.424Z,13.75
2023-04-29T08:07:18.377Z,13.80
2023-04-29T08:09:45.089Z,13.84
2023-04-29T08:12:11.528Z,13.98
2023-04-29T08:14:40.301Z,14.03
2023-04-29T08:17:07.410Z,14.10
2023-04-29T08:19:33.975Z,14.23
2023-04-29T08:22:01.142Z,14.26
2023-04-29T08:24:29.053Z,14.37
2023-04-29T08:26:55.568Z,14.60
2023-04-29T08:29:21.992Z,14.72
2023-04-29T08:31:48.541Z,14.71
2023-04-29T08:34:15.038Z,14.58
2023-04-29T08:36:41.498Z,14.45
2023-04-29T08:39:08.842Z,14.31
2023-04-29T08:41:36.959Z,14.19
2023-04-29T08:44:03.400Z,14.12
2023-04-29T08:46:30.919Z,14.20
2023-04-29T08:48:57.790Z,14.32
2023-04-29T08:51:24.526Z,14.37
2023-04-29T08:53:51.125Z,14.39
2023-04-29T08:56:20.461Z,14.47
2023-04-29T08:58:51.877Z,14.53
2023-04-29T09:01:18.860Z,14.46
2023-04-29T09:03:56.124Z,14.49
2023-04-29T09:06:22.761Z,14.40
2023-04-29T09:08:49.420Z,14.34
2023-04-29T09:11:16.632Z,14.37
2023-04-29T09:13:43.077Z,14.52
2023-04-29T09:16:13.326Z,14.56
2023-04-29T09:18:50.886Z,14.60
2023-04-29T09:21:25.370Z,14.65
2023-04-29T09:23:54.412Z,14.77
2023-04-29T09:26:21.138Z,14.87
2023-04-29T09:28:49.719Z,14.96
2023-04-29T09:31:27.706Z,14.98
2023-04-29T09:33:56.295Z,14.92
2023-04-29T09:36:45.490Z,14.75
2023-04-29T09:39:17.328Z,14.85
2023-04-29T09:41:43.734Z,15.17
2023-04-29T09:44:10.845Z,15.43
2023-04-29T09:46:38.351Z,15.46
2023-04-29T09:49:22.504Z,15.54
2023-04-29T09:51:56.791Z,15.68
2023-04-29T09:54:25.336Z,15.75
2023-04-29T09:56:53.267Z,15.97
2023-04-29T09:59:20.096Z,16.08
2023-04-29T10:01:51.349Z,16.16
2023-04-29T10:04:19.875Z,16.08
2023-04-29T10:06:49.234Z,15.95
2023-04-29T10:09:17.006Z,15.86
2023-04-29T10:11:48.853Z,15.84
2023-04-29T10:14:17.916Z,15.90
2023-04-29T10:17:03.629Z,15.95
2023-04-29T10:19:47.453Z,16.02
2023-04-29T10:22:26.886Z,16.00
2023-04-29T10:24:55.227Z,16.00
2023-04-29T10:27:24.848Z,15.97
2023-04-29T10:29:54.923Z,16.07
2023-04-29T10:32:21.948Z,16.18
2023-04-29T10:34:49.502Z,16.25
2023-04-29T10:37:16.998Z,16.57
2023-04-29T10:40:12.276Z,16.74
2023-04-29T10:42:41.758Z,16.96
2023-04-29T10:45:29.904Z,17.18
2023-04-29T10:48:06.162Z,16.99
2023-04-29T10:50:34.130Z,16.75
2023-04-29T10:53:05.061Z,16.56
2023-04-29T10:55:35.788Z,16.43
2023-04-29T10:58:04.023Z,16.76
2023-04-29T11:00:32.646Z,17.06
2023-04-29T11:03:05.586Z,17.27
2023-04-29T11:05:34.843Z,17.32
2023-04-29T11:08:16.441Z,17.24
2023-04-29T11:10:43.759Z,16.97
2023-04-29T11:13:27.455Z,16.85
2023-04-29T11:16:04.054Z,16.67
2023-04-29T11:18:30.815Z,16.50
2023-04-29T11:21:06.429Z,16.38
2023-04-29T11:23:45.040Z,16.39
2023-04-29T11:26:11.607Z,16.37
2023-04-29T11:28:41.828Z,16.23
2023-04-29T11:31:08.807Z,16.16
2023-04-29T11:33:35.696Z,16.15
2023-04-29T11:36:03.504Z,16.13
2023-04-29T11:38:30.951Z,16.20
2023-04-29T11:40:59.579Z,16.21
2023-04-29T11:43:26.325Z,16.15
2023-04-29T11:45:53.612Z,16.22
2023-04-29T11:48:26.999Z,16.30
2023-04-29T11:50:56.909Z,16.32
2023-04-29T11:53:25.458Z,16.40
2023-04-29T11:55:55.913Z,16.42
2023-04-29T11:58:23.375Z,16.33
2023-04-29T12:00:50.518Z,16.22
2023-04-29T12:03:19.115Z,16.10
2023-04-29T12:05:56.256Z,16.02
2023-04-29T12:08:24.194Z,16.11
2023-04-29T12:10:51.280Z,16.27
2023-04-29T12:13:18.923Z,16.48
2023-04-29T12:15:48.759Z,16.62
2023-04-29T12:18:16.896Z,16.65
2023-04-29T12:20:43.550Z,16.91
2023-04-29T12:23:14.387Z,17.11
2023-04-29T12:25:41.365Z,16.96
2023-04-29T12:28:14.359Z,16.87
2023-04-29T12:30:41.174Z,16.88
2023-04-29T12:33:10.667Z,16.96
2023-04-29T12:35:37.574Z,17.00
2023-04-29T12:38:04.155Z,17.04
2023-04-29T12:40:32.474Z,16.98
2023-04-29T12:43:07.138Z,16.97
2023-04-29T12:45:34.713Z,16.99
2023-04-29T12:48:02.214Z,17.02
2023-04-29T12:50:36.070Z,17.00
2023-04-29T12:53:04.833Z,16.85
2023-04-29T12:55:35.945Z,16.68
2023-04-29T12:58:03.547Z,16.64
2023-04-29T13:00:30.181Z,16.62
2023-04-29T13:02:56.773Z,16.73
2023-04-29T13:05:23.742Z,17.16
2023-04-29T13:07:50.408Z,17.55
2023-04-29T13:10:17.456Z,17.85
2023-04-29T13:12:43.871Z,18.12
2023-04-29T13:15:11.327Z,18.07
2023-04-29T13:17:37.864Z,17.97
2023-04-29T13:20:05.607Z,17.76
2023-04-29T13:22:32.769Z,17.78
2023-04-29T13:24:59.463Z,17.87
2023-04-29T13:27:25.935Z,17.88
2023-04-29T13:29:52.507Z,17.83
2023-04-29T13:32:21.505Z,17.82
2023-04-29T13:34:48.081Z,17.63
2023-04-29T13:37:14.547Z,17.48
2023-04-29T13:39:44.363Z,17.31
2023-04-29T13:42:15.269Z,17.12
2023-04-29T13:44:52.547Z,17.14
2023-04-29T13:47:26.312Z,17.32
2023-04-29T13:53:10.747Z,17.19
2023-04-29T14:00:31.649Z,16.98
2023-04-29T14:05:30.681Z,17.08
2023-04-29T14:07:57.309Z,17.02
2023-04-29T14:10:23.765Z,16.90
2023-04-29T14:12:50.301Z,16.90
2023-04-29T14:15:16.745Z,17.15
2023-04-29T14:17:43.368Z,17.13
2023-04-29T14:20:10.128Z,17.07
2023-04-29T14:22:36.594Z,17.03
2023-04-29T14:25:03.359Z,16.99
2023-04-29T14:27:29.874Z,16.97
2023-04-29T14:29:56.292Z,16.92
2023-04-29T14:32:22.743Z,16.82
2023-04-29T14:34:49.198Z,16.73
2023-04-29T14:37:15.623Z,16.67
2023-04-29T14:39:42.019Z,16.54
2023-04-29T14:42:08.390Z,16.47
2023-04-29T14:44:34.801Z,16.42
2023-04-29T14:47:01.269Z,16.47
2023-04-29T14:49:30.287Z,16.49
2023-04-29T14:51:57.881Z,16.44
2023-04-29T14:54:24.680Z,16.41
2023-04-29T14:56:51.090Z,16.38
2023-04-29T14:59:17.690Z,16.37
2023-04-29T15:01:44.224Z,16.36
2023-04-29T15:04:12.691Z,16.30
2023-04-29T15:06:40.435Z,16.25
2023-04-29T15:09:07.916Z,16.21
2023-04-29T15:11:34.383Z,16.15
2023-04-29T15:14:00.902Z,16.06
2023-04-29T15:16:28.633Z,15.94
2023-04-29T15:18:55.246Z,15.88
2023-04-29T15:21:22.120Z,15.84
2023-04-29T15:23:48.621Z,15.77
2023-04-29T15:26:15.115Z,15.73
2023-04-29T15:28:43.189Z,15.68
2023-04-29T15:31:09.899Z,15.60
2023-04-29T15:33:36.580Z,15.53
2023-04-29T15:36:03.253Z,15.54
2023-04-29T15:38:30.056Z,15.58
2023-04-29T15:41:00.897Z,15.61
2023-04-29T15:43:28.053Z,15.61
2023-04-29T15:45:54.552Z,15.60
2023-04-29T15:48:21.210Z,15.62
2023-04-29T15:50:48.069Z,15.57
2023-04-29T15:53:14.466Z,15.56
2023-04-29T15:55:41.141Z,15.52
2023-04-29T15:58:07.632Z,15.45
2023-04-29T16:00:34.089Z,15.35
2023-04-29T16:03:00.767Z,15.29
2023-04-29T16:05:27.292Z,15.24
2023-04-29T16:07:53.686Z,15.17
2023-04-29T16:10:20.093Z,15.15
2023-04-29T16:12:46.605Z,15.10
2023-04-29T16:15:13.049Z,15.06
2023-04-29T16:17:39.571Z,15.04
2023-04-29T16:20:06.737Z,15.08
2023-04-29T16:22:33.165Z,15.14
2023-04-29T16:25:01.036Z,15.12
2023-04-29T16:27:29.853Z,15.08
2023-04-29T16:29:56.746Z,14.99
2023-04-29T16:32:23.559Z,14.83
2023-04-29T16:34:50.048Z,14.67
2023-04-29T16:37:16.549Z,14.52
2023-04-29T16:39:43.867Z,14.44
2023-04-29T16:42:10.732Z,14.34
2023-04-29T16:44:37.148Z,14.32
2023-04-29T16:47:03.962Z,14.24
2023-04-29T16:49:31.299Z,14.15
2023-04-29T16:51:57.917Z,14.16
2023-04-29T16:54:25.258Z,14.17
2023-04-29T16:56:51.759Z,14.20
2023-04-29T16:59:18.252Z,14.22
2023-04-29T17:01:45.152Z,14.18
2023-04-29T17:04:11.823Z,14.17
2023-04-29T17:06:40.558Z,14.10
2023-04-29T17:09:07.467Z,13.92
2023-04-29T17:11:33.895Z,13.98
2023-04-29T17:14:00.352Z,13.91
2023-04-29T17:16:27.286Z,13.88
2023-04-29T17:18:54.321Z,13.84
2023-04-29T17:21:24.626Z,13.81
2023-04-29T17:23:53.061Z,13.77
2023-04-29T17:26:20.361Z,13.70
2023-04-29T17:28:46.787Z,13.64
2023-04-29T17:31:15.043Z,13.57
2023-04-29T17:33:50.269Z,13.52
2023-04-29T17:36:17.319Z,13.45
2023-04-29T17:38:43.742Z,13.37
2023-04-29T17:41:10.257Z,13.33
2023-04-29T17:43:36.678Z,13.28
2023-04-29T17:46:03.649Z,13.24
2023-04-29T17:48:32.112Z,13.18
2023-04-29T17:50:58.684Z,13.12
2023-04-29T17:53:25.308Z,13.07
2023-04-29T17:55:51.692Z,13.00
2023-04-29T17:58:18.562Z,12.98
2023-04-29T18:00:45.873Z,12.96
2023-04-29T18:03:12.492Z,12.93
2023-04-29T18:05:39.028Z,12.88
2023-04-29T18:08:05.572Z,12.86
2023-04-29T18:10:32.122Z,12.87
2023-04-29T18:12:58.583Z,12.90
2023-04-29T18:15:25.000Z,12.88
2023-04-29T18:17:51.476Z,12.87
2023-04-29T18:20:17.987Z,12.86
2023-04-29T18:22:44.457Z,12.81
2023-04-29T18:25:11.201Z,12.75
2023-04-29T18:27:37.786Z,12.75
2023-04-29T18:30:04.679Z,12.76
2023-04-29T18:32:31.111Z,12.77
2023-04-29T18:34:59.525Z,12.78
2023-04-29T18:37:26.093Z,12.77
2023-04-29T18:39:52.783Z,12.79
2023-04-29T18:42:19.522Z,12.80
2023-04-29T18:44:48.164Z,12.80
2023-04-29T18:47:15.052Z,12.79
2023-04-29T18:49:41.487Z,12.79
2023-04-29T18:52:08.570Z,12.78
2023-04-29T18:54:35.139Z,12.72
2023-04-29T18:57:02.744Z,12.67
2023-04-29T18:59:29.652Z,12.61
2023-04-29T19:01:56.235Z,12.58
2023-04-29T19:04:22.838Z,12.59
2023-04-29T19:06:49.304Z,12.57
2023-04-29T19:09:15.975Z,12.53
2023-04-29T19:11:42.458Z,12.55
2023-04-29T19:14:08.923Z,12.57
2023-04-29T19:16:37.298Z,12.58
2023-04-29T19:19:04.185Z,12.60
2023-04-29T19:21:32.805Z,12.51
2023-04-29T19:23:59.800Z,12.54
2023-04-29T19:26:26.218Z,12.49
2023-04-29T19:28:52.664Z,12.49
2023-04-29T19:31:19.191Z,12.53
2023-04-29T19:33:46.048Z,12.50
2023-04-29T19:36:14.204Z,12.50
2023-04-29T19:38:40.838Z,12.48
2023-04-29T19:41:07.308Z,12.47
2023-04-29T19:43:33.732Z,12.43
2023-04-29T19:46:00.262Z,12.44
2023-04-29T19:48:26.674Z,12.46
2023-04-29T19:50:53.167Z,12.47
2023-04-29T19:53:19.920Z,12.50
2023-04-29T19:55:46.558Z,12.50
2023-04-29T19:58:13.015Z,12.47
2023-04-29T20:00:39.743Z,12.44
2023-04-29T20:03:06.295Z,12.38
2023-04-29T20:05:32.782Z,12.36
2023-04-29T20:07:59.300Z,12.36
2023-04-29T20:10:28.101Z,12.36
2023-04-29T20:12:56.207Z,12.33
2023-04-29T20:15:22.683Z,12.29
2023-04-29T20:17:49.986Z,12.30
2023-04-29T20:20:16.677Z,12.29
2023-04-29T20:22:43.367Z,12.23
2023-04-29T20:25:09.862Z,12.20
2023-04-29T20:27:36.327Z,12.17
2023-04-29T20:30:03.335Z,12.16
2023-04-29T20:32:30.715Z,12.14
2023-04-29T20:34:57.309Z,12.11
2023-04-29T20:37:23.743Z,12.07
2023-04-29T20:39:50.500Z,12.04
2023-04-29T20:42:17.037Z,12.09
2023-04-29T20:44:43.597Z,12.08
2023-04-29T20:47:10.380Z,12.04
2023-04-29T20:49:37.077Z,11.99
2023-04-29T20:52:06.243Z,11.94
2023-04-29T20:54:33.342Z,11.76
2023-04-29T20:56:59.906Z,11.81
2023-04-29T20:59:26.327Z,11.79
2023-04-29T21:01:52.793Z,11.77
2023-04-29T21:04:21.003Z,11.75
2023-04-29T21:06:47.454Z,11.74
2023-04-29T21:09:13.935Z,11.71
2023-04-29T21:11:40.386Z,11.70
2023-04-29T21:14:06.820Z,11.67
2023-04-29T21:16:33.307Z,11.65
2023-04-29T21:18:59.730Z,11.65
2023-04-29T21:21:26.141Z,11.64
2023-04-29T21:23:52.809Z,11.63
2023-04-29T21:26:19.193Z,11.60
2023-04-29T21:28:45.949Z,11.59
2023-04-29T21:31:16.146Z,11.58
2023-04-29T21:33:44.299Z,11.49
2023-04-29T21:36:10.800Z,11.51
2023-04-29T21:38:37.199Z,11.54
2023-04-29T21:41:06.275Z,11.48
2023-04-29T21:43:33.355Z,11.41
2023-04-29T21:46:00.455Z,11.46
2023-04-29T21:48:27.492Z,11.42
2023-04-29T21:50:53.950Z,11.39
2023-04-29T21:53:20.356Z,11.39
2023-04-29T21:55:46.963Z,11.38
2023-04-29T21:58:13.526Z,11.38
2023-04-29T22:00:47.657Z,11.40
2023-04-29T22:03:15.258Z,11.43
2023-04-29T22:05:42.087Z,11.42
2023-04-29T22:08:08.639Z,11.42
2023-04-29T22:10:35.212Z,11.41
2023-04-29T22:13:01.759Z,11.37
2023-04-29T22:15:29.502Z,11.41
2023-04-29T22:17:57.231Z,11.40
2023-04-29T22:20:23.968Z,11.39
2023-04-29T22:22:50.530Z,11.37
2023-04-29T22:25:18.004Z,11.36
2023-04-29T22:27:44.442Z,11.37
2023-04-29T22:30:11.386Z,11.38
2023-04-29T22:32:37.921Z,11.34
2023-04-29T22:35:04.702Z,11.35
2023-04-29T22:37:31.320Z,11.37
2023-04-29T22:39:57.823Z,11.35
2023-04-29T22:42:24.398Z,11.31
2023-04-29T22:44:50.997Z,11.27
2023-04-29T22:47:17.498Z,11.25
2023-04-29T22:49:43.954Z,11.23
2023-04-29T22:52:10.491Z,11.23
2023-04-29T22:54:36.922Z,11.22
2023-04-29T22:57:03.938Z,11.21
2023-04-29T22:59:30.448Z,11.17
2023-04-29T23:01:57.085Z,11.13
2023-04-29T23:04:24.645Z,11.11
2023-04-29T23:06:51.440Z,10.79
2023-04-29T23:09:18.040Z,11.12
2023-04-29T23:11:44.536Z,11.10
2023-04-29T23:14:10.982Z,11.13
2023-04-29T23:16:37.419Z,11.12
2023-04-29T23:19:04.494Z,11.07
2023-04-29T23:21:31.157Z,11.04
2023-04-29T23:23:57.729Z,11.01
2023-04-29T23:26:24.241Z,11.04
2023-04-29T23:28:50.724Z,10.99
2023-04-29T23:31:17.312Z,10.93
2023-04-29T23:33:44.219Z,10.91
2023-04-29T23:36:11.778Z,10.92
2023-04-29T23:38:38.262Z,10.92
2023-04-29T23:41:04.790Z,10.93
2023-04-29T23:43:32.078Z,10.93
2023-04-29T23:45:58.524Z,10.91
2023-04-29T23:48:25.011Z,10.91
2023-04-29T23:50:51.443Z,10.91
2023-04-29T23:53:18.606Z,10.88
2023-04-29T23:55:45.039Z,10.89
2023-04-29T23:58:11.494Z,10.83
